Terminal Aerodrome Forecast
Issued by NWS

Home | Current Version | Previous Version | Text Only | Print | Product List | Glossary On
Versions: 1 2 3 4 5 6 7 8 9 10 11 12 13
000
FTUS43 KMQT 032322
TAFCMX
TAF
KCMX 032322Z 0400/0424 34008KT P6SM SCT090
     FM040100 36010KT P6SM BKN100
     FM040500 36015KT P6SM BKN070
     FM040900 36015G20KT P6SM OVC030
     FM041800 36014G20KT P6SM SCT070
     FM042200 35009KT P6SM SKC=

USA.gov is the U.S. government's official web portal to all federal, state and local government web resources and services.